KBTR/BTR METAR and TAF weather

Enter ICAO airport designator
Station Type Date Time Source
KBTR METAR 2018/10/21 02:53 UTC NOAA

KBTR 210253Z 01008KT 10SM FEW060 OVC110 19/17 A3015 RMK AO2 SLP209 60007 T01890167 51021


Station Type Date Time Source
KBTR Decoded METAR 2018/10/21 02:53 UTC NOAA

BATON ROUGE METRO RYAN FIELD, LA, United States (KBTR) 30-32N 91-09W 21M
Oct 20, 2018 - 10:53 PM EDT / 2018.10.21 0253 UTC
Wind: from the N (010 degrees) at 9 MPH (8 KT):0
Visibility: 10 mile(s):0
Sky conditions: overcast
Temperature: 66.0 F (18.9 C)
Dew Point: 62.1 F (16.7 C)
Relative Humidity: 87%
Pressure (altimeter): 30.15 in. Hg (1020 hPa)
Pressure tendency: 0.06 inches (2.1 hPa) higher than three hours ago
ob: KBTR 210253Z 01008KT 10SM FEW060 OVC110 19/17 A3015 RMK AO2 SLP209 60007 T01890167 51021
cycle: 3

Station Type Date Time Source
KBTR TAF 2018/10/20 18:27 UTC NOAA

TAF KBTR 201723Z 2018/2118 33006KT P6SM VCSH SCT015 BKN030
FM202300 36007KT P6SM VCSH BKN030 OVC045
FM210000 36006KT P6SM BKN025 OVC050
FM210200 01006KT P6SM BKN045 OVC070
FM210600 03006KT P6SM FEW060 SCT090
FM211500 05011KT P6SM FEW200 FEW250


Example: see airport list